createdAt,value
2023-02-01T00:00:14.429Z,2.90
2023-02-01T00:03:06.213Z,2.80
2023-02-01T00:06:02.232Z,2.90
2023-02-01T00:08:53.319Z,2.80
2023-02-01T00:11:43.213Z,2.80
2023-02-01T00:14:35.801Z,2.70
2023-02-01T00:17:25.549Z,2.60
2023-02-01T00:20:15.829Z,2.60
2023-02-01T00:23:05.533Z,2.70
2023-02-01T00:25:55.080Z,2.60
2023-02-01T00:28:44.971Z,2.60
2023-02-01T00:31:34.949Z,2.50
2023-02-01T00:34:24.854Z,2.50
2023-02-01T00:37:16.777Z,2.40
2023-02-01T00:40:07.580Z,2.40
2023-02-01T00:42:58.535Z,2.40
2023-02-01T00:45:48.581Z,2.50
2023-02-01T00:48:38.906Z,2.50
2023-02-01T00:51:30.184Z,2.50
2023-02-01T00:54:19.965Z,2.50
2023-02-01T00:57:10.076Z,2.50
2023-02-01T00:59:59.842Z,2.50
2023-02-01T01:02:50.054Z,2.60
2023-02-01T01:05:39.698Z,2.70
2023-02-01T01:08:29.529Z,2.70
2023-02-01T01:11:20.991Z,2.60
2023-02-01T01:14:11.181Z,2.60
2023-02-01T01:17:00.973Z,2.50
2023-02-01T01:19:51.079Z,2.60
2023-02-01T01:22:41.727Z,2.60
2023-02-01T01:25:31.596Z,2.60
2023-02-01T01:28:21.321Z,2.60
2023-02-01T01:31:11.849Z,2.60
2023-02-01T01:34:01.809Z,2.70
2023-02-01T01:36:52.465Z,2.60
2023-02-01T01:39:42.423Z,2.60
2023-02-01T01:42:32.466Z,2.60
2023-02-01T01:45:25.192Z,2.50
2023-02-01T01:48:16.800Z,2.50
2023-02-01T01:51:08.260Z,2.50
2023-02-01T01:54:01.197Z,2.50
2023-02-01T01:56:52.752Z,2.40
2023-02-01T01:59:51.527Z,2.40
2023-02-01T02:02:42.722Z,2.40
2023-02-01T02:05:33.239Z,2.50
2023-02-01T02:08:24.025Z,2.50
2023-02-01T02:11:17.239Z,2.50
2023-02-01T02:14:08.551Z,2.50
2023-02-01T02:17:15.312Z,2.50
2023-02-01T02:20:41.947Z,2.50
2023-02-01T02:23:43.415Z,2.50
2023-02-01T02:26:55.596Z,2.50
2023-02-01T02:30:09.672Z,2.40
2023-02-01T02:33:17.974Z,2.30
2023-02-01T02:36:10.040Z,2.30
2023-02-01T02:39:03.844Z,2.30
2023-02-01T02:42:13.553Z,2.20
2023-02-01T02:45:24.080Z,2.10
2023-02-01T02:48:15.921Z,2.10
2023-02-01T02:51:25.659Z,2.10
2023-02-01T02:54:34.306Z,2.10
2023-02-01T02:57:43.647Z,2.10
2023-02-01T03:00:54.562Z,2.10
2023-02-01T03:04:02.793Z,2.20
2023-02-01T03:06:53.958Z,2.10
2023-02-01T03:09:45.192Z,2.10
2023-02-01T03:12:54.404Z,2.00
2023-02-01T03:15:46.152Z,2.00
2023-02-01T03:18:38.820Z,2.10
2023-02-01T03:21:30.850Z,2.10
2023-02-01T03:24:22.101Z,2.00
2023-02-01T03:27:13.559Z,2.00
2023-02-01T03:30:06.830Z,1.90
2023-02-01T03:33:01.072Z,2.00
2023-02-01T03:35:54.993Z,2.00
2023-02-01T03:38:47.053Z,2.10
2023-02-01T03:41:44.057Z,2.10
2023-02-01T03:44:36.824Z,2.10
2023-02-01T03:47:28.049Z,2.10
2023-02-01T03:50:20.179Z,2.10
2023-02-01T03:53:11.688Z,2.10
2023-02-01T03:56:01.429Z,2.10
2023-02-01T03:59:00.291Z,2.10
2023-02-01T04:01:51.871Z,2.10
2023-02-01T04:04:41.953Z,2.10
2023-02-01T04:07:33.251Z,2.10
2023-02-01T04:10:23.264Z,2.10
2023-02-01T04:13:13.349Z,2.10
2023-02-01T04:16:03.671Z,2.10
2023-02-01T04:21:42.323Z,2.00
2023-02-01T04:24:32.400Z,2.00
2023-02-01T04:27:22.527Z,2.00
2023-02-01T04:30:13.849Z,1.90
2023-02-01T04:33:07.385Z,1.90
2023-02-01T04:36:00.640Z,1.90
2023-02-01T04:38:51.384Z,1.90
2023-02-01T04:41:43.224Z,2.00
2023-02-01T04:44:33.299Z,2.00
2023-02-01T04:47:23.066Z,2.00
2023-02-01T04:50:13.414Z,2.00
2023-02-01T04:53:22.791Z,2.10
2023-02-01T04:56:13.208Z,2.00
2023-02-01T04:59:04.052Z,2.10
2023-02-01T05:01:54.022Z,2.00
2023-02-01T05:04:43.693Z,2.00
2023-02-01T05:07:33.738Z,2.00
2023-02-01T05:10:23.906Z,1.90
2023-02-01T05:13:36.982Z,1.90
2023-02-01T05:16:27.240Z,1.90
2023-02-01T05:19:19.434Z,1.90
2023-02-01T05:22:08.960Z,1.80
2023-02-01T05:24:58.680Z,1.80
2023-02-01T05:27:48.832Z,1.80
2023-02-01T05:30:42.062Z,1.80
2023-02-01T05:33:30.747Z,1.70
2023-02-01T05:36:20.575Z,1.70
2023-02-01T05:39:11.460Z,1.60
2023-02-01T05:42:01.203Z,1.70
2023-02-01T05:44:50.914Z,1.60
2023-02-01T05:47:40.628Z,1.50
2023-02-01T05:50:32.185Z,1.50
2023-02-01T05:53:23.505Z,1.40
2023-02-01T05:56:16.617Z,1.40
2023-02-01T05:59:06.889Z,1.40
2023-02-01T06:01:56.910Z,1.40
2023-02-01T06:04:48.452Z,1.40
2023-02-01T06:07:38.530Z,1.30
2023-02-01T06:10:29.083Z,1.30
2023-02-01T06:13:19.309Z,1.30
2023-02-01T06:16:12.977Z,1.30
2023-02-01T06:19:02.926Z,1.40
2023-02-01T06:21:52.324Z,1.40
2023-02-01T06:24:45.744Z,1.40
2023-02-01T06:27:35.676Z,1.40
2023-02-01T06:30:25.549Z,1.40
2023-02-01T06:33:16.683Z,1.30
2023-02-01T06:36:07.606Z,1.30
2023-02-01T06:38:59.848Z,1.30
2023-02-01T06:41:49.627Z,1.30
2023-02-01T06:44:39.297Z,1.30
2023-02-01T06:47:28.889Z,1.30
2023-02-01T06:50:18.871Z,1.20
2023-02-01T06:53:08.363Z,1.20
2023-02-01T06:55:58.775Z,1.20
2023-02-01T06:58:48.462Z,1.20
2023-02-01T07:01:38.416Z,1.30
2023-02-01T07:04:27.882Z,1.30
2023-02-01T07:07:18.140Z,1.20
2023-02-01T07:10:08.738Z,1.30
2023-02-01T07:12:59.222Z,1.20
2023-02-01T07:15:49.397Z,1.30
2023-02-01T07:18:39.210Z,1.20
2023-02-01T07:21:29.485Z,1.20
2023-02-01T07:24:19.126Z,1.30
2023-02-01T07:27:08.363Z,1.40
2023-02-01T07:29:59.783Z,1.50
2023-02-01T07:32:49.719Z,1.60
2023-02-01T07:35:39.669Z,1.60
2023-02-01T07:38:29.871Z,1.70
2023-02-01T07:41:19.930Z,1.70
2023-02-01T07:44:10.075Z,1.60
2023-02-01T07:47:00.213Z,1.60
2023-02-01T07:49:50.143Z,1.60
2023-02-01T07:52:41.145Z,1.60
2023-02-01T07:55:31.090Z,1.70
2023-02-01T07:58:21.510Z,1.70
2023-02-01T08:01:22.015Z,1.70
2023-02-01T08:04:13.596Z,1.70
2023-02-01T08:07:03.478Z,1.80
2023-02-01T08:09:53.327Z,1.80
2023-02-01T08:12:43.189Z,1.80
2023-02-01T08:15:33.006Z,1.90
2023-02-01T08:18:22.887Z,1.90
2023-02-01T08:21:13.535Z,2.00
2023-02-01T08:24:03.242Z,2.00
2023-02-01T08:26:52.810Z,2.10
2023-02-01T08:29:42.483Z,2.10
2023-02-01T08:32:32.435Z,2.20
2023-02-01T08:35:25.759Z,2.30
2023-02-01T08:38:13.264Z,2.40
2023-02-01T08:41:07.685Z,2.40
2023-02-01T08:43:57.729Z,2.50
2023-02-01T08:46:47.367Z,2.60
2023-02-01T08:49:36.803Z,2.80
2023-02-01T08:52:26.574Z,2.90
2023-02-01T08:55:17.466Z,3.00
2023-02-01T08:58:08.907Z,3.10
2023-02-01T09:00:58.879Z,3.30
2023-02-01T09:03:48.334Z,3.40
2023-02-01T09:06:37.811Z,3.60
2023-02-01T09:09:29.129Z,3.60
2023-02-01T09:12:18.899Z,3.60
2023-02-01T09:15:09.941Z,3.60
2023-02-01T09:17:59.478Z,3.70
2023-02-01T09:20:49.287Z,3.70
2023-02-01T09:23:39.235Z,3.60
2023-02-01T09:26:33.160Z,3.70
2023-02-01T09:29:20.583Z,3.80
2023-02-01T09:32:10.311Z,3.80
2023-02-01T09:35:00.002Z,3.90
2023-02-01T09:37:49.791Z,3.90
2023-02-01T09:40:40.922Z,3.90
2023-02-01T09:43:40.052Z,4.00
2023-02-01T09:46:31.193Z,4.00
2023-02-01T09:49:22.720Z,4.20
2023-02-01T09:52:14.701Z,4.30
2023-02-01T09:55:05.629Z,4.40
2023-02-01T09:57:57.196Z,4.40
2023-02-01T10:00:48.656Z,4.50
2023-02-01T10:03:38.711Z,4.50
2023-02-01T10:06:37.766Z,4.50
2023-02-01T10:09:46.560Z,4.60
2023-02-01T10:12:43.114Z,4.60
2023-02-01T10:15:42.978Z,4.70
2023-02-01T10:18:54.324Z,4.80
2023-02-01T10:21:50.923Z,4.90
2023-02-01T10:24:42.825Z,5.00
2023-02-01T10:27:33.985Z,5.00
2023-02-01T10:30:25.717Z,5.20
2023-02-01T10:33:20.099Z,5.20
2023-02-01T10:36:13.611Z,5.30
2023-02-01T10:39:04.734Z,5.40
2023-02-01T10:41:54.852Z,5.50
2023-02-01T10:44:48.581Z,5.60
2023-02-01T10:47:39.555Z,5.60
2023-02-01T10:50:36.150Z,5.70
2023-02-01T10:53:28.714Z,5.80
2023-02-01T10:56:19.892Z,5.90
2023-02-01T10:59:14.854Z,6.00
2023-02-01T11:02:05.976Z,6.20
2023-02-01T11:04:57.295Z,6.30
2023-02-01T11:07:50.977Z,6.30
2023-02-01T11:10:41.701Z,6.40
2023-02-01T11:13:34.389Z,6.40
2023-02-01T11:16:24.021Z,6.50
2023-02-01T11:19:15.197Z,6.60
2023-02-01T11:22:06.052Z,6.70
2023-02-01T11:24:55.836Z,6.80
2023-02-01T11:27:54.524Z,6.80
2023-02-01T11:30:39.344Z,6.90
2023-02-01T11:33:31.475Z,7.00
2023-02-01T11:36:22.880Z,7.00
2023-02-01T11:39:16.256Z,7.10
2023-02-01T11:42:07.450Z,7.10
2023-02-01T11:45:14.192Z,7.20
2023-02-01T11:48:06.863Z,7.20
2023-02-01T11:51:00.536Z,7.30
2023-02-01T11:53:56.238Z,7.30
2023-02-01T11:56:52.869Z,7.40
2023-02-01T11:59:57.143Z,7.40
2023-02-01T12:03:10.588Z,7.40
2023-02-01T12:06:01.902Z,7.40
2023-02-01T12:09:07.555Z,7.50
2023-02-01T12:12:03.450Z,7.60
2023-02-01T12:15:01.613Z,7.60
2023-02-01T12:18:03.625Z,7.70
2023-02-01T12:21:12.062Z,7.90
2023-02-01T12:24:07.622Z,8.00
2023-02-01T12:27:02.076Z,8.10
2023-02-01T12:29:54.065Z,8.10
2023-02-01T12:32:51.543Z,8.20
2023-02-01T12:35:56.393Z,8.20
2023-02-01T12:39:25.359Z,8.20
2023-02-01T12:42:55.424Z,8.30
2023-02-01T12:46:29.686Z,8.40
2023-02-01T12:50:00.022Z,8.40
2023-02-01T12:52:54.993Z,8.50
2023-02-01T12:55:46.939Z,8.70
2023-02-01T12:58:41.218Z,8.70
2023-02-01T13:01:32.544Z,8.90
2023-02-01T13:04:23.472Z,8.90
2023-02-01T13:07:16.825Z,9.10
2023-02-01T13:10:07.733Z,9.20
2023-02-01T13:12:58.677Z,9.10
2023-02-01T13:15:49.972Z,9.10
2023-02-01T13:18:41.258Z,9.00
2023-02-01T13:21:32.412Z,9.10
2023-02-01T13:24:26.602Z,9.10
2023-02-01T13:27:17.000Z,9.20
2023-02-01T13:30:08.646Z,9.20
2023-02-01T13:33:54.405Z,9.20
2023-02-01T13:36:31.653Z,9.30
2023-02-01T13:39:29.581Z,9.40
2023-02-01T13:42:21.246Z,9.40
2023-02-01T13:45:17.672Z,9.40
2023-02-01T13:48:09.580Z,9.40
2023-02-01T13:51:00.299Z,9.30
2023-02-01T13:53:50.986Z,9.30
2023-02-01T13:56:44.616Z,9.40
2023-02-01T13:59:59.553Z,9.40
2023-02-01T14:02:54.857Z,9.40
2023-02-01T14:05:58.451Z,9.50
2023-02-01T14:08:52.125Z,9.50
2023-02-01T14:11:43.497Z,9.50
2023-02-01T14:14:43.717Z,9.50
2023-02-01T14:17:36.184Z,9.60
2023-02-01T14:20:51.990Z,9.70
2023-02-01T14:23:43.167Z,9.70
2023-02-01T14:26:52.190Z,9.60
2023-02-01T14:29:43.291Z,9.70
2023-02-01T14:32:34.946Z,9.70
2023-02-01T14:35:26.533Z,9.70
2023-02-01T14:38:16.551Z,9.70
2023-02-01T14:41:28.045Z,9.70
2023-02-01T14:44:31.403Z,9.70
2023-02-01T14:47:31.936Z,9.60
2023-02-01T14:50:31.975Z,9.50
2023-02-01T14:53:24.490Z,9.40
2023-02-01T14:56:16.772Z,9.40
2023-02-01T14:59:10.912Z,9.30
2023-02-01T15:02:02.383Z,9.20
2023-02-01T15:04:56.331Z,9.20
2023-02-01T15:07:46.075Z,9.10
2023-02-01T15:10:37.186Z,9.10
2023-02-01T15:13:28.196Z,9.10
2023-02-01T15:16:18.838Z,9.10
2023-02-01T15:19:12.893Z,9.10
2023-02-01T15:22:03.311Z,9.10
2023-02-01T15:24:55.445Z,9.00
2023-02-01T15:27:45.499Z,8.90
2023-02-01T15:30:36.355Z,8.90
2023-02-01T15:33:27.736Z,8.80
2023-02-01T15:36:21.677Z,8.80
2023-02-01T15:39:18.902Z,8.70
2023-02-01T15:42:14.705Z,8.70
2023-02-01T15:45:07.415Z,8.70
2023-02-01T15:47:58.105Z,8.60
2023-02-01T15:50:47.958Z,8.60
2023-02-01T15:53:37.699Z,8.60
2023-02-01T15:56:29.098Z,8.60
2023-02-01T15:59:19.710Z,8.50
2023-02-01T16:02:26.267Z,8.50
2023-02-01T16:05:29.873Z,8.50
2023-02-01T16:08:21.220Z,8.40
2023-02-01T16:11:28.632Z,8.50
2023-02-01T16:14:18.482Z,8.50
2023-02-01T16:17:08.303Z,8.50
2023-02-01T16:19:58.383Z,8.40
2023-02-01T16:22:48.070Z,8.40
2023-02-01T16:25:38.266Z,8.50
2023-02-01T16:28:27.832Z,8.50
2023-02-01T16:31:20.778Z,8.50
2023-02-01T16:34:14.285Z,8.50
2023-02-01T16:37:04.681Z,8.50
2023-02-01T16:39:54.354Z,8.40
2023-02-01T16:42:48.551Z,8.40
2023-02-01T16:45:40.074Z,8.40
2023-02-01T16:48:30.821Z,8.40
2023-02-01T16:51:20.616Z,8.40
2023-02-01T16:54:10.919Z,8.30
2023-02-01T16:57:01.826Z,8.30
2023-02-01T16:59:52.127Z,8.40
2023-02-01T17:02:43.176Z,8.40
2023-02-01T17:05:33.060Z,8.40
2023-02-01T17:08:26.060Z,8.30
2023-02-01T17:11:16.111Z,8.40
2023-02-01T17:14:12.679Z,8.40
2023-02-01T17:17:03.347Z,8.40
2023-02-01T17:19:54.513Z,8.40
2023-02-01T17:22:44.290Z,8.40
2023-02-01T17:25:34.179Z,8.40
2023-02-01T17:28:24.363Z,8.40
2023-02-01T17:31:16.648Z,8.30
2023-02-01T17:34:07.216Z,8.30
2023-02-01T17:36:57.389Z,8.30
2023-02-01T17:39:56.968Z,8.20
2023-02-01T17:42:46.511Z,8.20
2023-02-01T17:45:37.981Z,8.20
2023-02-01T17:48:28.736Z,8.30
2023-02-01T17:51:20.581Z,8.30
2023-02-01T17:54:12.535Z,8.20
2023-02-01T17:57:03.830Z,8.20
2023-02-01T17:59:53.565Z,8.20
2023-02-01T18:02:43.350Z,8.20
2023-02-01T18:05:36.207Z,8.20
2023-02-01T18:08:27.351Z,8.20
2023-02-01T18:11:19.015Z,8.20
2023-02-01T18:14:10.381Z,8.20
2023-02-01T18:17:00.099Z,8.10
2023-02-01T18:19:49.662Z,8.10
2023-02-01T18:22:39.683Z,8.00
2023-02-01T18:25:30.031Z,8.00
2023-02-01T18:28:21.139Z,7.90
2023-02-01T18:31:13.981Z,7.90
2023-02-01T18:34:04.396Z,7.80
2023-02-01T18:36:54.099Z,7.70
2023-02-01T18:39:43.957Z,7.70
2023-02-01T18:42:33.815Z,7.80
2023-02-01T18:45:25.429Z,7.70
2023-02-01T18:48:16.257Z,7.80
2023-02-01T18:51:06.672Z,7.70
2023-02-01T18:53:56.080Z,7.70
2023-02-01T18:56:45.601Z,7.60
2023-02-01T18:59:35.527Z,7.60
2023-02-01T19:02:25.044Z,7.70
2023-02-01T19:05:15.154Z,7.60
2023-02-01T19:08:05.081Z,7.60
2023-02-01T19:10:55.414Z,7.60
2023-02-01T19:13:45.092Z,7.60
2023-02-01T19:16:36.726Z,7.60
2023-02-01T19:19:26.709Z,7.50
2023-02-01T19:22:16.917Z,7.40
2023-02-01T19:25:07.449Z,7.40
2023-02-01T19:27:57.325Z,7.40
2023-02-01T19:30:47.158Z,7.40
2023-02-01T19:33:37.391Z,7.40
2023-02-01T19:36:27.652Z,7.40
2023-02-01T19:39:19.577Z,7.40
2023-02-01T19:42:09.363Z,7.40
2023-02-01T19:44:59.155Z,7.30
2023-02-01T19:47:48.729Z,7.30
2023-02-01T19:50:38.244Z,7.30
2023-02-01T19:53:28.355Z,7.30
2023-02-01T19:56:17.915Z,7.30
2023-02-01T19:59:07.955Z,7.30
2023-02-01T20:01:57.028Z,7.20
2023-02-01T20:04:48.322Z,7.20
2023-02-01T20:07:38.811Z,7.30
2023-02-01T20:10:29.127Z,7.30
2023-02-01T20:13:18.703Z,7.20
2023-02-01T20:16:08.600Z,7.30
2023-02-01T20:18:58.565Z,7.30
2023-02-01T20:21:48.461Z,7.40
2023-02-01T20:24:38.802Z,7.40
2023-02-01T20:27:29.480Z,7.30
2023-02-01T20:30:20.022Z,7.40
2023-02-01T20:33:11.408Z,7.40
2023-02-01T20:36:01.127Z,7.30
2023-02-01T20:38:50.791Z,7.30
2023-02-01T20:41:41.077Z,7.40
2023-02-01T20:44:30.281Z,7.30
2023-02-01T20:47:19.780Z,7.20
2023-02-01T20:50:11.255Z,7.20
2023-02-01T20:53:00.863Z,7.20
2023-02-01T20:55:53.019Z,7.10
2023-02-01T20:58:43.036Z,7.10
2023-02-01T21:01:32.585Z,7.10
2023-02-01T21:04:23.080Z,7.00
2023-02-01T21:07:12.569Z,7.00
2023-02-01T21:10:02.903Z,6.90
2023-02-01T21:13:03.860Z,7.00
2023-02-01T21:15:45.712Z,6.90
2023-02-01T21:18:35.341Z,7.00
2023-02-01T21:21:26.228Z,6.90
2023-02-01T21:24:15.966Z,6.90
2023-02-01T21:27:05.804Z,6.90
2023-02-01T21:29:55.291Z,7.00
2023-02-01T21:32:50.173Z,7.00
2023-02-01T21:35:42.343Z,7.00
2023-02-01T21:38:31.912Z,7.00
2023-02-01T21:41:40.613Z,6.90
2023-02-01T21:44:30.477Z,6.90
2023-02-01T21:47:21.272Z,6.80
2023-02-01T21:50:13.928Z,6.70
2023-02-01T21:53:03.629Z,6.70
2023-02-01T21:55:53.611Z,6.70
2023-02-01T21:58:43.469Z,6.70
2023-02-01T22:01:33.307Z,6.70
2023-02-01T22:04:23.352Z,6.70
2023-02-01T22:07:13.274Z,6.80
2023-02-01T22:10:03.020Z,6.80
2023-02-01T22:12:53.115Z,6.70
2023-02-01T22:15:47.855Z,6.60
2023-02-01T22:18:44.811Z,6.60
2023-02-01T22:21:34.845Z,6.60
2023-02-01T22:24:25.093Z,6.60
2023-02-01T22:27:15.086Z,6.50
2023-02-01T22:30:04.949Z,6.50
2023-02-01T22:32:55.216Z,6.50
2023-02-01T22:35:44.830Z,6.50
2023-02-01T22:38:35.484Z,6.40
2023-02-01T22:41:25.540Z,6.40
2023-02-01T22:44:15.853Z,6.50
2023-02-01T22:47:06.410Z,6.40
2023-02-01T22:49:59.320Z,6.40
2023-02-01T22:52:53.666Z,6.40
2023-02-01T22:58:22.717Z,6.40
2023-02-01T23:01:12.909Z,6.40
2023-02-01T23:04:03.905Z,6.40
2023-02-01T23:06:53.923Z,6.40
2023-02-01T23:09:43.670Z,6.40
2023-02-01T23:12:34.802Z,6.40
2023-02-01T23:15:24.836Z,6.40
2023-02-01T23:18:14.878Z,6.40
2023-02-01T23:21:06.130Z,6.50
2023-02-01T23:23:57.410Z,6.50
2023-02-01T23:26:47.421Z,6.50
2023-02-01T23:32:21.638Z,6.50
2023-02-01T23:35:11.858Z,6.60
2023-02-01T23:38:01.860Z,6.50
2023-02-01T23:40:52.790Z,6.60
2023-02-01T23:44:01.026Z,6.60
2023-02-01T23:46:50.579Z,6.60
2023-02-01T23:52:31.714Z,6.60
2023-02-01T23:55:24.486Z,6.50
